Alvaton, KY

4:18 PM CDT on October 20, 2014 (GMT -0500)
Nashville International | Change Station
CLOSE
Current Station
Airport
Location: Nashville,
Elevation: 597 ft
Nearby Weather Stations

Elev 597 ft 36.12 °N, 86.69 °W | Updated 25 minutes ago

Overcast
Overcast
67 °F
Feels Like 67 °F
N
5
Wind Variable Wind from SSW

Today
High -- | Low -- °F
--% Chance of Precip.
Yesterday
High -- | Low -- °F
Precip. -- in
6:57 AM 6:02 PM
Waning Crescent, 9% visible
Pressure 29.99 in
Visibility 10.0 miles
Clouds Scattered Clouds 8500 ft
Mostly Cloudy 12000 ft
Dew Point 49 °F
Humidity 52%
Rainfall 0.00 in
Snow Depth Not available.
UV 1 out of 12
Pollen 1.80 out of 12
Air Quality Not available.
Flu Activity Sporadic
METAR KBNA 202053Z 21004KT 10SM SCT085 BKN120 19/09 A3000 RMK AO2 SLP156 T01940094 56014

More Conditions Fewer Conditions

Pressure 29.99 in
Visibility 10.0 miles
Clouds Scattered Clouds 8500 ft
Mostly Cloudy 12000 ft
Dew Point 49 °F
Humidity 52%
Rainfall 0.00 in
Snow Depth Not available.
UV 1 out of 12
Pollen 1.80 out of 12
Air Quality Not available.
Flu Activity Sporadic
METAR KBNA 202053Z 21004KT 10SM SCT085 BKN120 19/09 A3000 RMK AO2 SLP156 T01940094 56014

More Conditions Fewer Conditions

10-Day Weather Forecast

Almanac

Astronomy

Oct. 20, 2014 Rise Set
Actual Time 6:57 AM CDT 6:02 PM CDT
Civil Twilight 6:31 AM CDT 6:28 PM CDT
Nautical Twilight 6:01 AM CDT 6:58 PM CDT
Astronomical Twilight 5:31 AM CDT 7:28 PM CDT
Moon 3:50 AM CDT 4:20 PM CDT
Length of Visible Light 11h 57m
Length of Day
11h 04m
Waning Crescent, 9% of the Moon is Illuminated
Today
Waning Crescent
Oct 23
New
Oct 30
First Quarter
Nov 6
Full
Nov 14
Last Quarter

Today's Extremes

State Highs State Lows

Community

WunderPhotos

Upload Photos

1,763,510 photos uploaded!

WunderBlogs® & News

Nearby

Snow Depth

Station Depth Elevation
No new snow has been reported.

Earthquake Activity

City Distance Mag. Time & Date
No recent earthquake activity has been reported nearby.
Minimum magnitude displayed is 2.5.

Coastal Water Temperatures

Place Temperature
No Stations Reporting

Nearby Weather Stations